Time;durP1;ratioP1;P1;durP2;ratioP2;P2;SDS_P1;SDS_P2;PMS_P1;PMS_P2;Temp;Humidity;BMP_temperature;BMP_pressure;BME280_temperature;BME280_humidity;BME280_pressure;Samples;Min_cycle;Max_cycle;Signal;HPM_P1;HPM_P2
2022/10/11 00:01:26;;;;;;;18.95;7.05;;;;;;;5.76;77.04;100236.38;6230325;22;20018;-72
2022/10/11 00:03:50;;;;;;;12.07;6.32;;;;;;;5.77;76.31;100235.44;6231020;22;20014;-72
2022/10/11 00:06:15;;;;;;;18.08;7.50;;;;;;;5.78;76.33;100234.53;6230712;22;20007;-77
2022/10/11 00:08:41;;;;;;;16.92;6.40;;;;;;;5.84;76.02;100239.56;6233753;22;20103;-74
2022/10/11 00:11:06;;;;;;;16.35;7.50;;;;;;;5.86;75.94;100236.88;6233332;22;20046;-75
2022/10/11 00:13:34;;;;;;;12.32;5.72;;;;;;;5.82;76.23;100231.69;6234029;22;20007;-78
2022/10/11 00:15:59;;;;;;;16.38;5.95;;;;;;;5.81;75.58;100229.13;6233219;22;20066;-74
2022/10/11 00:18:24;;;;;;;15.57;6.57;;;;;;;5.82;75.69;100226.41;6231390;22;20019;-75
2022/10/11 00:20:49;;;;;;;13.57;5.85;;;;;;;5.85;75.87;100222.78;6232582;22;20019;-72
2022/10/11 00:23:14;;;;;;;12.23;5.43;;;;;;;5.84;75.72;100221.91;6232430;22;20219;-71
2022/10/11 00:25:38;;;;;;;8.90;5.30;;;;;;;5.82;75.75;100222.91;6230316;22;20077;-73
2022/10/11 00:28:04;;;;;;;15.48;5.50;;;;;;;5.81;75.78;100215.88;6230055;22;20015;-74
2022/10/11 00:30:31;;;;;;;9.30;5.13;;;;;;;5.86;74.88;100216.56;6228698;22;20012;-69
2022/10/11 00:32:55;;;;;;;15.85;5.80;;;;;;;5.88;75.20;100220.00;6229744;22;20099;-73
2022/10/11 00:35:20;;;;;;;9.85;5.55;;;;;;;5.86;75.07;100213.06;6229167;22;20039;-75
2022/10/11 00:37:45;;;;;;;11.82;4.90;;;;;;;5.84;75.60;100213.13;6231211;22;20019;-74
2022/10/11 00:40:15;;;;;;;13.20;5.82;;;;;;;5.83;75.45;100214.91;6229602;22;20022;-73
2022/10/11 00:42:39;;;;;;;9.15;5.10;;;;;;;5.79;75.58;100215.09;6232172;22;20343;-78
2022/10/11 00:45:26;;;;;;;11.30;5.53;;;;;;;5.87;75.07;100212.13;6232136;22;20419;-76
2022/10/11 00:47:55;;;;;;;10.57;5.32;;;;;;;5.81;75.03;100213.25;6204723;22;20015;-72
2022/10/11 00:50:22;;;;;;;8.10;4.85;;;;;;;5.87;74.41;100223.56;6252004;22;19995;-70
2022/10/11 00:52:55;;;;;;;7.82;4.70;;;;;;;5.89;74.54;100226.16;6234971;22;20012;-77
2022/10/11 00:55:24;;;;;;;12.23;5.43;;;;;;;5.89;73.77;100223.53;6232555;22;20385;-74
2022/10/11 00:57:51;;;;;;;11.75;4.13;;;;;;;5.90;74.22;100219.94;6233864;22;20007;-77
2022/10/11 01:00:18;;;;;;;7.75;4.57;;;;;;;5.93;74.05;100214.53;6204656;22;20019;-76
2022/10/11 01:02:43;;;;;;;9.57;4.80;;;;;;;5.93;73.23;100225.97;6229809;22;20015;-77
2022/10/11 01:05:10;;;;;;;7.57;4.65;;;;;;;5.94;73.54;100206.53;6231553;22;20019;-79
2022/10/11 01:07:35;;;;;;;8.05;4.68;;;;;;;5.95;72.94;100216.19;6206972;22;20016;-77
2022/10/11 01:10:00;;;;;;;9.98;4.82;;;;;;;5.93;72.69;100203.94;6206440;22;20061;-73
2022/10/11 01:12:28;;;;;;;6.85;4.18;;;;;;;5.86;73.22;100207.75;6204078;22;20012;-72
2022/10/11 01:15:15;;;;;;;9.88;4.65;;;;;;;5.82;73.26;100201.75;6229028;22;20011;-74
2022/10/11 01:18:01;;;;;;;9.63;5.25;;;;;;;5.78;73.08;100203.66;6231342;22;20011;-79
2022/10/11 01:21:07;;;;;;;9.95;4.53;;;;;;;5.77;73.25;100206.34;6230593;22;20015;-71
2022/10/11 01:23:38;;;;;;;;;;;;;;;5.81;71.92;100207.94;6232439;22;20034;-71
2022/10/11 01:26:33;;;;;;;8.15;4.35;;;;;;;5.77;72.16;100209.00;6230130;22;19911;-69
2022/10/11 01:28:57;;;;;;;;;;;;;;;5.77;71.62;100206.34;6232659;22;20023;-72
2022/10/11 01:31:48;;;;;;;6.60;4.13;;;;;;;5.68;72.27;100209.41;6233098;22;19950;-72
2022/10/11 01:34:24;;;;;;;5.75;4.43;;;;;;;5.64;72.22;100208.69;6108390;23;20390;-68
2022/10/11 01:36:53;;;;;;;5.30;3.63;;;;;;;5.59;72.46;100213.28;6108077;23;20084;-71
2022/10/11 01:39:34;;;;;;;8.32;4.55;;;;;;;5.58;72.53;100211.56;6082992;23;20043;-71
2022/10/11 01:42:04;;;;;;;9.60;4.18;;;;;;;5.57;72.30;100209.84;6083305;23;20048;-74
2022/10/11 01:44:29;;;;;;;11.38;4.80;;;;;;;5.53;72.67;100205.59;6083301;23;20524;-74
2022/10/11 01:46:54;;;;;;;6.22;4.03;;;;;;;5.47;73.67;100214.66;6108776;23;20072;-73
2022/10/11 01:49:19;;;;;;;6.70;4.00;;;;;;;5.41;73.36;100207.00;6084348;23;20017;-76
2022/10/11 01:51:49;;;;;;;6.30;4.05;;;;;;;5.38;74.02;100208.91;6084948;23;20049;-75
2022/10/11 01:54:23;;;;;;;8.45;3.92;;;;;;;5.32;74.12;100203.84;6109693;23;20075;-76
2022/10/11 01:56:59;;;;;;;;;;;;;;;5.41;73.64;100207.00;6111207;23;20018;-77
2022/10/11 01:59:42;;;;;;;5.97;4.03;;;;;;;5.33;73.77;100206.44;6085101;23;19944;-74
2022/10/11 02:02:45;;;;;;;9.73;4.78;;;;;;;5.28;74.60;100204.91;6087210;23;20519;-76
2022/10/11 02:05:20;;;;;;;15.98;5.88;;;;;;;5.20;74.65;100210.50;6087468;23;20013;-77
2022/10/11 02:07:56;;;;;;;15.18;5.55;;;;;;;5.16;75.11;100211.56;6085630;23;20024;-76
2022/10/11 02:10:39;;;;;;;19.35;5.57;;;;;;;5.16;75.22;100208.91;6078609;22;20011;-83
2022/10/11 02:13:10;;;;;;;11.95;4.95;;;;;;;5.14;76.01;100213.41;6205229;22;20099;-72
2022/10/11 02:15:39;;;;;;;15.15;5.57;;;;;;;5.13;75.99;100221.38;6232404;22;20431;-78
2022/10/11 02:18:09;;;;;;;12.70;5.40;;;;;;;5.10;75.80;100211.78;6230456;22;20019;-78
2022/10/11 02:20:38;;;;;;;11.63;5.57;;;;;;;5.09;75.93;100212.72;6231743;22;20019;-77
2022/10/11 02:23:18;;;;;;;14.38;5.68;;;;;;;5.09;75.81;100210.06;6229931;22;20335;-70
2022/10/11 02:25:44;;;;;;;15.10;5.60;;;;;;;5.07;75.61;100207.50;6231169;22;20320;-71
2022/10/11 02:28:22;;;;;;;14.95;5.75;;;;;;;5.10;75.87;100215.28;6230484;22;20015;-68
2022/10/11 02:30:49;;;;;;;26.90;6.80;;;;;;;5.06;75.98;100205.78;6229916;22;20331;-67
2022/10/11 02:33:19;;;;;;;17.02;8.05;;;;;;;5.04;76.23;100210.28;6228869;22;20012;-68
2022/10/11 02:35:51;;;;;;;19.17;7.90;;;;;;;5.02;76.23;100212.09;6230345;22;20011;-69
2022/10/11 02:38:28;;;;;;;32.45;7.85;;;;;;;5.03;76.04;100215.63;6230154;22;20016;-69
2022/10/11 02:41:00;;;;;;;19.70;6.78;;;;;;;5.01;75.82;100223.59;6230114;22;20020;-66
2022/10/11 02:43:47;;;;;;;20.60;7.30;;;;;;;5.03;76.36;100218.25;6230213;22;20069;-67
2022/10/11 02:46:12;;;;;;;25.23;6.18;;;;;;;4.92;76.30;100215.19;6230540;22;20018;-70
2022/10/11 02:48:38;;;;;;;14.65;6.45;;;;;;;4.90;75.94;100211.72;6229848;22;20458;-70
2022/10/11 02:51:03;;;;;;;18.40;6.78;;;;;;;4.86;75.63;100216.25;6228803;22;20019;-71
2022/10/11 02:53:28;;;;;;;20.38;7.55;;;;;;;4.84;76.05;100218.13;6228624;22;20109;-70
2022/10/11 02:55:54;;;;;;;14.65;7.13;;;;;;;4.83;75.89;100210.25;6233233;22;20019;-70
2022/10/11 02:58:19;;;;;;;17.40;8.25;;;;;;;4.79;75.80;100208.66;6231664;22;20451;-69
2022/10/11 03:00:44;;;;;;;15.45;6.38;;;;;;;4.77;76.07;100210.47;6229720;22;20552;-69
2022/10/11 03:03:09;;;;;;;34.55;7.85;;;;;;;4.72;76.20;100211.53;6230012;22;20014;-70
2022/10/11 03:05:39;;;;;;;16.65;6.03;;;;;;;4.71;76.60;100214.22;6229251;22;20011;-69
2022/10/11 03:08:04;;;;;;;16.05;6.63;;;;;;;4.68;76.37;100220.47;6229587;22;20037;-70
2022/10/11 03:10:28;;;;;;;11.07;6.50;;;;;;;4.66;76.25;100213.53;6229383;22;20008;-70
2022/10/11 03:12:53;;;;;;;27.15;7.07;;;;;;;4.63;76.07;100209.22;6230059;22;20704;-69
2022/10/11 03:15:17;;;;;;;22.08;6.90;;;;;;;4.61;76.32;100213.72;6230908;22;20439;-70
2022/10/11 03:17:42;;;;;;;17.65;6.65;;;;;;;4.58;76.38;100205.06;6232365;22;20506;-71
2022/10/11 03:20:07;;;;;;;22.55;7.78;;;;;;;4.55;76.27;100215.72;6230590;22;20016;-72
2022/10/11 03:22:32;;;;;;;17.02;6.63;;;;;;;4.51;76.15;100200.94;6228746;22;20043;-69
2022/10/11 03:24:56;;;;;;;14.82;6.65;;;;;;;4.50;76.45;100208.00;6230322;22;20473;-69
2022/10/11 03:27:21;;;;;;;15.60;7.05;;;;;;;4.48;76.33;100207.19;6229733;22;20020;-70
2022/10/11 03:29:46;;;;;;;13.95;6.55;;;;;;;4.45;76.05;100212.56;6228010;22;20351;-68
2022/10/11 03:32:10;;;;;;;21.45;7.28;;;;;;;4.42;76.24;100206.53;6229769;22;20447;-69
2022/10/11 03:34:35;;;;;;;17.52;6.10;;;;;;;4.41;76.20;100207.44;6229188;22;20008;-69
2022/10/11 03:36:59;;;;;;;33.85;7.40;;;;;;;4.39;76.22;100202.25;6229254;22;20434;-69
2022/10/11 03:39:24;;;;;;;52.42;9.20;;;;;;;4.38;76.64;100197.88;6230291;22;20671;-69
2022/10/11 03:41:49;;;;;;;18.75;7.93;;;;;;;4.35;76.41;100198.84;6230352;22;20023;-68
2022/10/11 03:44:13;;;;;;;21.77;6.70;;;;;;;4.35;76.65;100192.72;6229917;22;20015;-68
2022/10/11 03:46:38;;;;;;;22.95;7.50;;;;;;;4.33;76.60;100197.19;6229742;22;20173;-68
2022/10/11 03:49:03;;;;;;;19.10;8.48;;;;;;;4.32;76.50;100187.53;6229503;22;20346;-69
2022/10/11 03:51:28;;;;;;;22.92;7.88;;;;;;;4.30;76.55;100195.50;6202215;22;20105;-70
2022/10/11 03:53:52;;;;;;;23.75;7.72;;;;;;;4.29;76.61;100190.28;6228596;22;20085;-69
2022/10/11 03:56:17;;;;;;;16.83;6.93;;;;;;;4.28;76.56;100188.59;6227630;22;20038;-69
2022/10/11 03:58:42;;;;;;;19.23;7.28;;;;;;;4.28;76.63;100185.97;6227578;22;20065;-70
2022/10/11 04:01:07;;;;;;;17.08;6.85;;;;;;;4.26;76.45;100186.00;6228745;22;20016;-70
2022/10/11 04:03:31;;;;;;;29.52;8.55;;;;;;;4.26;76.30;100193.06;6229159;22;20094;-71
2022/10/11 04:05:56;;;;;;;31.42;8.48;;;;;;;4.26;76.44;100183.38;6229360;22;20015;-70
2022/10/11 04:08:26;;;;;;;43.55;11.40;;;;;;;4.27;76.56;100182.47;6229182;22;20011;-69
2022/10/11 04:10:51;;;;;;;25.10;8.05;;;;;;;4.32;76.52;100182.25;6229530;22;20023;-70
2022/10/11 04:13:15;;;;;;;22.80;8.40;;;;;;;4.35;76.50;100183.03;6229839;22;20038;-69
2022/10/11 04:15:40;;;;;;;21.33;7.63;;;;;;;4.38;76.47;100197.88;6229852;22;20020;-69
2022/10/11 04:18:05;;;;;;;34.88;8.88;;;;;;;4.40;76.38;100187.28;6228726;22;20023;-69
2022/10/11 04:20:30;;;;;;;32.92;9.68;;;;;;;4.42;76.52;100194.19;6229050;22;20537;-70
2022/10/11 04:22:55;;;;;;;42.47;9.32;;;;;;;4.48;76.25;100182.56;6228272;22;20402;-70
2022/10/11 04:25:19;;;;;;;30.83;9.68;;;;;;;4.53;76.38;100194.66;6228375;22;20091;-70
2022/10/11 04:27:44;;;;;;;28.08;9.15;;;;;;;4.59;76.01;100194.44;6229460;22;20020;-70
2022/10/11 04:30:10;;;;;;;39.65;8.82;;;;;;;4.66;76.17;100192.41;6228599;22;20114;-69
2022/10/11 04:32:35;;;;;;;30.98;8.07;;;;;;;4.74;76.04;100195.59;6229684;22;20011;-70
2022/10/11 04:35:00;;;;;;;33.92;10.05;;;;;;;4.85;75.77;100189.94;6230415;22;20026;-71
2022/10/11 04:37:24;;;;;;;38.75;9.48;;;;;;;4.97;75.37;100190.28;6230630;22;20018;-69
2022/10/11 04:39:49;;;;;;;31.98;9.80;;;;;;;5.11;75.13;100190.59;6230423;22;20050;-72
2022/10/11 04:42:15;;;;;;;21.63;7.72;;;;;;;5.28;74.46;100189.91;6231329;22;20046;-71
2022/10/11 04:44:39;;;;;;;50.45;9.52;;;;;;;5.46;74.22;100191.78;6229268;22;20014;-71
2022/10/11 04:47:04;;;;;;;49.67;11.23;;;;;;;5.68;73.39;100185.59;6231764;22;20015;-69
2022/10/11 04:49:29;;;;;;;74.65;10.52;;;;;;;5.93;73.09;100181.00;6230698;22;20007;-69
2022/10/11 04:51:54;;;;;;;45.78;10.00;;;;;;;6.23;71.83;100186.69;6232408;22;20108;-71
2022/10/11 04:54:18;;;;;;;51.95;12.57;;;;;;;6.57;70.99;100180.72;6232995;22;20153;-72
2022/10/11 04:56:43;;;;;;;41.47;10.25;;;;;;;6.95;69.69;100183.38;6230639;22;20347;-71
2022/10/11 04:59:08;;;;;;;39.35;10.00;;;;;;;7.36;68.81;100181.31;6230957;22;20457;-71
2022/10/11 05:01:33;;;;;;;23.27;8.15;;;;;;;7.80;67.13;100187.03;6230511;22;20016;-71
2022/10/11 05:03:58;;;;;;;30.48;9.60;;;;;;;8.24;66.14;100185.56;6231026;22;20081;-71
2022/10/11 05:06:22;;;;;;;69.38;11.73;;;;;;;8.68;64.73;100177.91;6230412;22;20447;-70
2022/10/11 05:08:47;;;;;;;42.78;10.70;;;;;;;9.16;63.51;100181.38;6230466;22;20012;-70
2022/10/11 05:11:14;;;;;;;37.42;12.40;;;;;;;9.68;61.45;100187.22;6233623;22;20015;-72
2022/10/11 05:13:39;;;;;;;62.67;13.02;;;;;;;10.16;59.80;100182.53;6231765;22;20012;-71
2022/10/11 05:16:04;;;;;;;35.60;8.38;;;;;;;10.57;58.49;100180.03;6229540;22;20046;-70
2022/10/11 05:18:29;;;;;;;21.13;7.82;;;;;;;11.04;57.28;100179.66;6230642;22;20024;-69
2022/10/11 05:21:01;;;;;;;26.65;7.97;;;;;;;11.53;55.92;100185.28;6230232;22;20346;-70
2022/10/11 05:23:27;;;;;;;25.08;9.05;;;;;;;11.99;54.26;100180.38;6230275;22;20019;-71
2022/10/11 05:25:52;;;;;;;21.77;9.45;;;;;;;12.65;52.02;100176.59;6230382;22;20057;-70
2022/10/11 05:28:17;;;;;;;21.65;7.80;;;;;;;13.22;50.55;100176.03;6229890;22;20023;-71
2022/10/11 05:30:41;;;;;;;21.08;8.23;;;;;;;13.82;48.91;100173.28;6229518;22;20015;-72
2022/10/11 05:33:06;;;;;;;23.25;7.70;;;;;;;14.30;48.07;100177.63;6228958;22;20481;-71
2022/10/11 05:35:31;;;;;;;31.60;8.57;;;;;;;14.56;47.31;100171.09;6228452;22;20018;-72
2022/10/11 05:37:55;;;;;;;22.40;8.32;;;;;;;14.81;46.71;100168.16;6230335;22;20892;-71
2022/10/11 05:40:20;;;;;;;19.05;7.75;;;;;;;14.99;46.36;100162.28;6229795;22;20011;-71
2022/10/11 05:42:45;;;;;;;31.10;9.45;;;;;;;15.00;45.79;100167.53;6230254;22;20437;-70
2022/10/11 05:45:09;;;;;;;22.25;8.65;;;;;;;14.89;45.42;100176.47;6230052;22;20012;-71
2022/10/11 05:47:34;;;;;;;33.03;9.95;;;;;;;14.80;45.76;100168.28;6230221;22;20528;-71
2022/10/11 05:49:58;;;;;;;32.60;7.88;;;;;;;14.90;45.81;100170.09;6230580;22;20470;-71
2022/10/11 05:52:23;;;;;;;21.52;8.73;;;;;;;15.02;45.08;100164.69;6230466;22;20011;-70
2022/10/11 05:54:48;;;;;;;35.60;9.55;;;;;;;15.33;44.58;100163.91;6230625;22;20047;-70
2022/10/11 05:57:13;;;;;;;27.48;10.23;;;;;;;15.55;43.61;100171.91;6231000;22;20525;-70
2022/10/11 05:59:37;;;;;;;30.95;11.75;;;;;;;15.80;42.83;100172.53;6230436;22;20020;-69
2022/10/11 06:02:02;;;;;;;31.88;12.65;;;;;;;16.08;42.35;100165.66;6230397;22;20339;-70
2022/10/11 06:04:27;;;;;;;26.67;11.55;;;;;;;16.53;41.09;100158.09;6230000;22;20416;-70
2022/10/11 06:06:52;;;;;;;29.58;11.10;;;;;;;17.13;40.51;100157.22;6230380;22;20015;-69
2022/10/11 06:09:17;;;;;;;29.98;9.13;;;;;;;17.87;38.92;100162.94;6230222;22;20016;-72
2022/10/11 06:11:41;;;;;;;27.77;8.05;;;;;;;18.56;37.72;100159.09;6230401;22;20017;-71
2022/10/11 06:14:07;;;;;;;21.48;6.97;;;;;;;19.25;36.31;100158.63;6228705;22;20038;-69
2022/10/11 06:16:32;;;;;;;17.55;8.13;;;;;;;19.89;35.49;100153.00;6229378;22;20102;-69
2022/10/11 06:18:56;;;;;;;22.98;7.97;;;;;;;20.53;34.00;100152.63;6230751;22;20043;-69
2022/10/11 06:21:22;;;;;;;19.95;7.38;;;;;;;21.08;33.29;100146.78;6237784;22;20477;-69
2022/10/11 06:23:50;;;;;;;21.20;7.47;;;;;;;21.41;32.60;100153.16;6236173;22;20018;-69
2022/10/11 06:26:16;;;;;;;19.05;6.78;;;;;;;20.50;33.40;100141.28;6238040;22;20015;-69
2022/10/11 06:28:41;;;;;;;16.73;6.80;;;;;;;19.15;35.09;100143.31;6230671;22;20528;-71
2022/10/11 06:31:06;;;;;;;13.48;6.13;;;;;;;17.83;38.00;100153.44;6229809;22;20012;-71
2022/10/11 06:33:31;;;;;;;11.18;6.03;;;;;;;16.65;39.45;100144.44;6230225;22;20339;-71
2022/10/11 06:36:00;;;;;;;12.13;5.90;;;;;;;15.63;40.96;100146.22;6228698;22;20015;-71
2022/10/11 06:38:25;;;;;;;13.13;5.57;;;;;;;14.79;42.48;100148.63;6228714;22;20015;-71
2022/10/11 06:40:50;;;;;;;9.60;5.30;;;;;;;14.27;43.33;100143.00;6229843;22;20019;-71
2022/10/11 06:43:14;;;;;;;13.25;4.63;;;;;;;13.84;44.29;100137.47;6230057;22;20011;-72
2022/10/11 06:45:39;;;;;;;10.45;5.20;;;;;;;13.59;45.14;100144.69;6229831;22;20011;-72
2022/10/11 06:48:04;;;;;;;10.30;4.88;;;;;;;13.62;45.43;100136.44;6233511;22;20047;-72
2022/10/11 06:50:29;;;;;;;15.35;5.00;;;;;;;13.97;44.78;100143.59;6228345;22;20363;-72
2022/10/11 06:52:53;;;;;;;12.82;5.00;;;;;;;14.50;44.12;100136.72;6229768;22;20016;-72
2022/10/11 06:55:18;;;;;;;12.63;5.10;;;;;;;15.14;42.20;100135.00;6230203;22;20016;-72
2022/10/11 06:57:43;;;;;;;12.05;4.63;;;;;;;15.82;40.88;100143.66;6229047;22;20588;-72
2022/10/11 07:00:08;;;;;;;12.00;4.43;;;;;;;16.47;39.37;100140.66;6229696;22;20019;-72
2022/10/11 07:02:33;;;;;;;12.93;4.80;;;;;;;17.17;38.12;100139.75;6228920;22;20324;-72
2022/10/11 07:04:58;;;;;;;9.75;4.47;;;;;;;17.74;36.71;100133.56;6227490;22;20034;-71
2022/10/11 07:07:23;;;;;;;11.43;4.78;;;;;;;18.30;35.71;100146.22;6227408;22;20069;-72
2022/10/11 07:09:48;;;;;;;5.18;3.63;;;;;;;18.97;34.17;100141.56;6229204;22;20455;-70
2022/10/11 07:12:13;;;;;;;7.80;4.28;;;;;;;19.50;33.24;100136.28;6228963;22;20022;-70
2022/10/11 07:14:37;;;;;;;8.30;3.60;;;;;;;20.12;31.95;100143.38;6229264;22;20051;-70
2022/10/11 07:17:02;;;;;;;5.15;3.33;;;;;;;20.61;31.05;100138.28;6228781;22;20404;-70
2022/10/11 07:19:27;;;;;;;10.05;4.28;;;;;;;21.31;30.05;100141.63;6229395;22;20031;-70
2022/10/11 07:21:51;;;;;;;6.38;4.00;;;;;;;22.05;28.90;100136.09;6229533;22;20039;-71
2022/10/11 07:24:16;;;;;;;7.57;4.13;;;;;;;22.67;27.64;100133.56;6228894;22;20443;-71
2022/10/11 07:26:41;;;;;;;5.63;2.80;;;;;;;23.18;26.85;100128.59;6229233;22;20021;-71
2022/10/11 07:29:07;;;;;;;11.10;4.07;;;;;;;23.69;26.31;100134.41;6229062;22;20011;-71
2022/10/11 07:31:32;;;;;;;5.32;3.30;;;;;;;23.83;25.93;100119.97;6228065;22;20409;-69
2022/10/11 07:33:57;;;;;;;6.75;3.65;;;;;;;23.80;25.74;100134.00;6227507;22;20482;-70
2022/10/11 07:36:22;;;;;;;7.35;3.15;;;;;;;23.71;25.86;100135.06;6229178;22;20035;-71
2022/10/11 07:38:48;;;;;;;5.53;3.58;;;;;;;23.53;25.78;100133.50;6229071;22;20331;-69
2022/10/11 07:41:13;;;;;;;6.15;3.67;;;;;;;23.31;25.82;100128.00;6228606;22;20123;-71
2022/10/11 07:43:38;;;;;;;5.97;3.63;;;;;;;23.12;25.63;100129.31;6230776;22;20042;-74
2022/10/11 07:46:03;;;;;;;3.05;2.75;;;;;;;23.02;25.44;100135.00;6240974;22;20015;-72
2022/10/11 07:48:30;;;;;;;7.43;3.65;;;;;;;23.43;25.36;100129.28;6237098;22;20026;-72
2022/10/11 07:51:03;;;;;;;3.60;2.95;;;;;;;24.20;24.92;100122.72;6230044;22;20335;-70
2022/10/11 07:53:28;;;;;;;7.38;3.25;;;;;;;24.65;23.91;100101.78;6229629;22;20433;-71
2022/10/11 07:55:53;;;;;;;8.98;3.58;;;;;;;25.10;23.48;100122.53;6227713;22;20055;-71
2022/10/11 07:58:17;;;;;;;6.43;3.80;;;;;;;25.48;23.04;100123.19;6229446;22;20019;-71
2022/10/11 08:00:42;;;;;;;7.53;4.45;;;;;;;25.94;22.68;100120.94;6229230;22;20436;-72
2022/10/11 08:03:07;;;;;;;4.85;3.72;;;;;;;26.26;21.99;100137.78;6228702;22;20018;-72
2022/10/11 08:05:33;;;;;;;6.22;3.47;;;;;;;26.84;21.44;100122.81;6228936;22;20027;-70
2022/10/11 08:07:58;;;;;;;4.68;4.00;;;;;;;27.27;20.72;100120.69;6228365;22;20015;-70
2022/10/11 08:10:24;;;;;;;5.32;3.40;;;;;;;27.57;20.64;100123.09;6229841;22;20027;-72
2022/10/11 08:12:49;;;;;;;5.53;3.67;;;;;;;27.86;20.30;100127.38;6230650;22;20443;-71
2022/10/11 08:15:14;;;;;;;5.68;4.20;;;;;;;28.20;19.89;100127.19;6230871;22;20443;-71
2022/10/11 08:17:39;;;;;;;7.35;4.15;;;;;;;28.85;19.38;100122.66;6230745;22;20015;-71
2022/10/11 08:20:04;;;;;;;7.80;4.07;;;;;;;29.54;18.61;100117.25;6230187;22;20026;-72
2022/10/11 08:22:29;;;;;;;7.03;4.43;;;;;;;30.26;17.75;100120.50;6230448;22;20022;-71
2022/10/11 08:24:53;;;;;;;7.97;4.10;;;;;;;31.32;17.42;100106.41;6230898;22;20012;-70
2022/10/11 08:27:18;;;;;;;6.13;4.10;;;;;;;31.40;16.38;100112.44;6230986;22;20015;-70
2022/10/11 08:29:43;;;;;;;7.28;4.22;;;;;;;31.39;16.35;100113.50;6228836;22;20018;-72
2022/10/11 08:32:10;;;;;;;6.10;3.80;;;;;;;31.60;16.26;100112.16;6230717;22;20081;-70
2022/10/11 08:34:35;;;;;;;6.95;4.35;;;;;;;31.74;16.24;100105.38;6230306;22;20016;-71
2022/10/11 08:37:00;;;;;;;6.45;4.80;;;;;;;31.21;16.71;100093.44;6228284;22;20023;-71
2022/10/11 08:39:24;;;;;;;4.47;3.92;;;;;;;30.78;16.55;100101.81;6230608;22;20077;-71
2022/10/11 08:41:58;;;;;;;7.30;4.22;;;;;;;30.55;17.44;100108.84;6230504;22;20034;-72
2022/10/11 08:44:43;;;;;;;7.60;4.13;;;;;;;30.81;17.73;100102.19;6231185;22;20015;-71
2022/10/11 08:47:20;;;;;;;6.80;4.20;;;;;;;30.68;17.90;100094.94;6236675;22;20020;-71
2022/10/11 08:49:45;;;;;;;11.90;5.20;;;;;;;30.12;16.61;100096.97;6230858;22;20015;-69
2022/10/11 08:52:17;;;;;;;8.00;4.50;;;;;;;30.66;16.63;100088.81;6228715;22;20066;-68
2022/10/11 08:54:50;;;;;;;7.45;4.32;;;;;;;31.32;15.65;100087.13;6229983;22;20072;-68
2022/10/11 08:57:19;;;;;;;8.13;4.55;;;;;;;31.86;15.42;100088.00;6230121;22;20447;-67
2022/10/11 08:59:52;;;;;;;11.32;4.78;;;;;;;32.09;15.71;100069.56;6228181;22;20545;-70
2022/10/11 09:02:43;;;;;;;7.43;4.50;;;;;;;31.44;15.60;100068.72;6229908;22;20020;-68
2022/10/11 09:05:14;;;;;;;8.88;4.32;;;;;;;30.29;16.71;100070.56;6230938;22;20051;-68
2022/10/11 09:07:59;;;;;;;7.18;4.40;;;;;;;28.86;18.18;100063.97;6230365;22;20351;-69
2022/10/11 09:10:53;;;;;;;4.95;3.80;;;;;;;26.96;18.83;100069.25;6230443;22;20372;-68
2022/10/11 09:13:40;;;;;;;;;;;;;;;26.61;19.83;100059.38;6229368;22;20406;-68
2022/10/11 09:16:18;;;;;;;8.85;4.68;;;;;;;25.29;20.98;100067.34;6240362;22;19911;-68
2022/10/11 09:19:14;;;;;;;7.13;4.90;;;;;;;25.73;21.37;100055.41;6230375;22;20141;-67
2022/10/11 09:21:50;;;;;;;5.13;4.30;;;;;;;26.26;20.83;100053.91;6239682;22;20327;-69
2022/10/11 09:24:27;;;;;;;8.48;5.22;;;;;;;26.81;20.32;100052.09;6239830;22;20411;-68
2022/10/11 09:27:20;;;;;;;10.73;4.72;;;;;;;27.85;20.43;100048.97;6240133;22;20120;-69
2022/10/11 09:30:15;;;;;;;8.40;4.72;;;;;;;28.85;19.39;100045.81;6223008;22;20023;-69
2022/10/11 09:33:16;;;;;;;5.35;3.75;;;;;;;29.15;18.44;100048.78;6227809;22;20019;-68
2022/10/11 09:35:46;;;;;;;7.93;4.50;;;;;;;28.99;17.66;100039.19;6230179;22;20023;-67
2022/10/11 09:38:17;;;;;;;8.10;5.40;;;;;;;28.89;16.66;100036.88;6230055;22;20071;-68
2022/10/11 09:41:00;;;;;;;11.05;4.50;;;;;;;29.65;17.28;100049.75;6228695;22;20073;-70
2022/10/11 09:43:25;;;;;;;6.17;4.10;;;;;;;30.28;15.75;100031.19;6227969;22;20030;-69
2022/10/11 09:45:50;;;;;;;11.55;4.70;;;;;;;31.26;15.23;100028.31;6229915;22;20015;-70
2022/10/11 09:48:37;;;;;;;5.85;4.90;;;;;;;32.57;14.94;100024.31;6228238;22;20015;-69
2022/10/11 09:51:10;;;;;;;5.03;4.00;;;;;;;32.34;14.72;100016.94;6228719;22;20053;-68
2022/10/11 09:53:58;;;;;;;7.40;4.25;;;;;;;32.06;16.01;100017.63;6230141;22;20015;-69
2022/10/11 09:56:25;;;;;;;12.45;4.40;;;;;;;31.35;15.61;100017.78;6230570;22;20026;-71
2022/10/11 09:59:07;;;;;;;8.05;4.03;;;;;;;30.50;16.78;100016.97;6228447;22;20076;-69
2022/10/11 10:01:32;;;;;;;8.52;4.32;;;;;;;28.47;16.64;100016.38;6230155;22;20099;-68
2022/10/11 10:04:07;;;;;;;6.22;4.25;;;;;;;27.63;17.93;100009.97;6228642;22;20020;-68
2022/10/11 10:06:31;;;;;;;10.18;4.18;;;;;;;26.80;18.26;100009.38;6230187;22;20103;-68
2022/10/11 10:09:25;;;;;;;5.35;3.50;;;;;;;25.86;19.93;100005.47;6229501;22;20101;-68
2022/10/11 10:11:50;;;;;;;8.82;4.38;;;;;;;23.47;21.13;100003.56;6230171;22;20026;-68
2022/10/11 10:14:27;;;;;;;4.85;3.53;;;;;;;21.96;22.85;100001.34;6227772;22;20350;-68
2022/10/11 10:17:02;;;;;;;8.45;4.30;;;;;;;20.42;23.79;99998.53;6228446;22;20019;-66
2022/10/11 10:19:51;;;;;;;5.55;3.35;;;;;;;18.90;25.50;100002.69;6228199;22;20027;-66
2022/10/11 10:22:20;;;;;;;9.85;3.85;;;;;;;17.88;26.71;100001.94;6229955;22;20023;-68
2022/10/11 10:24:47;;;;;;;7.60;3.95;;;;;;;17.23;27.48;99993.72;6228397;22;20017;-67
2022/10/11 10:27:26;;;;;;;14.82;4.72;;;;;;;16.90;27.85;99988.75;6205756;22;20041;-69
2022/10/11 10:30:14;;;;;;;6.65;3.17;;;;;;;16.41;28.66;99993.19;6242665;22;20020;-69
2022/10/11 10:32:58;;;;;;;8.02;3.70;;;;;;;15.86;29.50;99986.50;6232336;22;20324;-70
2022/10/11 10:35:59;;;;;;;7.87;4.67;;;;;;;15.65;29.68;99980.31;6227517;22;20027;-68
2022/10/11 10:38:39;;;;;;;8.55;3.45;;;;;;;15.19;31.12;99979.72;6228863;22;20277;-69
2022/10/11 10:41:08;;;;;;;7.03;4.00;;;;;;;14.92;32.46;99968.63;6240046;22;20073;-68
2022/10/11 10:43:35;;;;;;;9.55;4.22;;;;;;;14.77;32.73;99978.81;6228221;22;20122;-69
2022/10/11 10:46:06;;;;;;;8.20;4.13;;;;;;;14.65;33.19;99966.44;6229676;22;20359;-67
2022/10/11 10:48:37;;;;;;;7.88;3.70;;;;;;;14.63;33.06;99976.44;6231064;22;20047;-71
2022/10/11 10:51:12;;;;;;;10.30;3.90;;;;;;;14.57;33.01;99976.06;6236405;22;20023;-73
2022/10/11 10:53:40;;;;;;;9.57;5.00;;;;;;;14.37;33.08;99966.97;6231561;22;20110;-72
2022/10/11 10:56:16;;;;;;;11.50;4.40;;;;;;;14.33;32.97;99969.06;6228066;22;20098;-72
2022/10/11 10:58:59;;;;;;;6.53;3.92;;;;;;;14.08;33.20;99961.31;6229609;22;20447;-71
2022/10/11 11:01:27;;;;;;;6.45;3.47;;;;;;;13.96;33.51;99960.47;6227684;22;20035;-72
2022/10/11 11:03:56;;;;;;;5.22;3.42;;;;;;;13.82;34.56;99960.69;6229509;22;20016;-71
2022/10/11 11:06:41;;;;;;;8.98;4.00;;;;;;;13.64;33.84;99946.97;6228069;22;20011;-71
2022/10/11 11:09:21;;;;;;;5.22;3.40;;;;;;;13.57;32.71;99948.41;6229293;22;20016;-71
2022/10/11 11:12:01;;;;;;;5.10;3.20;;;;;;;13.33;33.20;99948.50;6229660;22;20022;-73
2022/10/11 11:14:42;;;;;;;4.82;3.50;;;;;;;13.27;33.86;99946.31;6228772;22;20026;-70
2022/10/11 11:17:27;;;;;;;10.85;4.68;;;;;;;13.18;33.69;99944.34;6201709;22;20015;-71
2022/10/11 11:20:15;;;;;;;8.20;3.63;;;;;;;13.07;34.87;99946.97;6229004;22;20049;-71
2022/10/11 11:22:40;;;;;;;8.85;3.60;;;;;;;12.93;34.39;99944.50;6229468;22;20022;-71
2022/10/11 11:25:25;;;;;;;7.75;3.75;;;;;;;12.93;34.36;99936.47;6229799;22;20011;-73
2022/10/11 11:27:53;;;;;;;;;;;;;;;13.03;33.89;99934.78;6229832;22;20012;-70
2022/10/11 11:30:49;;;;;;;6.47;3.92;;;;;;;12.86;35.65;99929.88;6229211;22;19919;-74
2022/10/11 11:33:17;;;;;;;6.15;3.83;;;;;;;12.73;35.62;99925.47;6237675;22;20026;-74
2022/10/11 11:35:47;;;;;;;6.50;3.97;;;;;;;12.70;36.69;99931.03;6239710;22;20015;-73
2022/10/11 11:38:18;;;;;;;9.00;4.40;;;;;;;12.67;36.62;99919.69;6227704;22;20091;-69